sensor_id;sensor_type;location;lat;lon;timestamp;pressure;altitude;pressure_sealevel;temperature;humidity
10014;BME280;45684;48.358;10.746;2023-02-28T00:01:23;96688.06;;;-0.74;100.00
10014;BME280;45684;48.358;10.746;2023-02-28T00:03:51;96702.22;;;-0.81;100.00
10014;BME280;45684;48.358;10.746;2023-02-28T00:06:21;96678.69;;;-0.77;100.00
10014;BME280;45684;48.358;10.746;2023-02-28T00:08:49;96696.13;;;-0.81;100.00
10014;BME280;45684;48.358;10.746;2023-02-28T00:11:16;96683.78;;;-0.87;100.00
10014;BME280;45684;48.358;10.746;2023-02-28T00:13:45;96683.88;;;-0.82;100.00
10014;BME280;45684;48.358;10.746;2023-02-28T00:16:16;96685.38;;;-0.86;100.00
10014;BME280;45684;48.358;10.746;2023-02-28T00:18:45;96674.88;;;-0.81;100.00
10014;BME280;45684;48.358;10.746;2023-02-28T00:21:14;96672.47;;;-0.83;100.00
10014;BME280;45684;48.358;10.746;2023-02-28T00:23:43;96674.19;;;-0.77;100.00
10014;BME280;45684;48.358;10.746;2023-02-28T00:26:11;96667.97;;;-0.82;100.00
10014;BME280;45684;48.358;10.746;2023-02-28T00:28:43;96676.97;;;-0.83;100.00
10014;BME280;45684;48.358;10.746;2023-02-28T00:31:10;96672.13;;;-0.74;100.00
10014;BME280;45684;48.358;10.746;2023-02-28T00:33:38;96669.47;;;-0.74;100.00
10014;BME280;45684;48.358;10.746;2023-02-28T00:36:08;96672.81;;;-0.79;100.00
10014;BME280;45684;48.358;10.746;2023-02-28T00:38:36;96668.06;;;-0.77;100.00
10014;BME280;45684;48.358;10.746;2023-02-28T00:41:06;96667.13;;;-0.71;100.00
10014;BME280;45684;48.358;10.746;2023-02-28T00:43:36;96670.72;;;-0.77;100.00
10014;BME280;45684;48.358;10.746;2023-02-28T00:46:04;96666.34;;;-0.83;100.00
10014;BME280;45684;48.358;10.746;2023-02-28T00:48:32;96667.84;;;-0.87;100.00
10014;BME280;45684;48.358;10.746;2023-02-28T00:51:00;96667.38;;;-0.84;100.00
10014;BME280;45684;48.358;10.746;2023-02-28T00:53:30;96668.75;;;-0.82;100.00
10014;BME280;45684;48.358;10.746;2023-02-28T00:55:58;96673.81;;;-0.80;100.00
10014;BME280;45684;48.358;10.746;2023-02-28T00:58:28;96675.31;;;-0.84;100.00
10014;BME280;45684;48.358;10.746;2023-02-28T01:00:56;96669.91;;;-0.89;100.00
10014;BME280;45684;48.358;10.746;2023-02-28T01:03:24;96667.59;;;-0.86;100.00
10014;BME280;45684;48.358;10.746;2023-02-28T01:05:52;96657.69;;;-0.90;100.00
10014;BME280;45684;48.358;10.746;2023-02-28T01:08:20;96665.06;;;-0.92;100.00
10014;BME280;45684;48.358;10.746;2023-02-28T01:10:49;96664.94;;;-0.86;100.00
10014;BME280;45684;48.358;10.746;2023-02-28T01:13:18;96660.56;;;-0.92;100.00
10014;BME280;45684;48.358;10.746;2023-02-28T01:15:49;96664.16;;;-0.86;100.00
10014;BME280;45684;48.358;10.746;2023-02-28T01:18:18;96660.94;;;-0.88;100.00
10014;BME280;45684;48.358;10.746;2023-02-28T01:20:46;96663.00;;;-0.90;100.00
10014;BME280;45684;48.358;10.746;2023-02-28T01:23:15;96661.25;;;-0.96;100.00
10014;BME280;45684;48.358;10.746;2023-02-28T01:25:43;96662.75;;;-0.89;100.00
10014;BME280;45684;48.358;10.746;2023-02-28T01:28:11;96668.88;;;-0.88;100.00
10014;BME280;45684;48.358;10.746;2023-02-28T01:30:39;96659.88;;;-0.87;100.00
10014;BME280;45684;48.358;10.746;2023-02-28T01:33:08;96647.50;;;-0.93;100.00
10014;BME280;45684;48.358;10.746;2023-02-28T01:35:36;96649.59;;;-0.95;100.00
10014;BME280;45684;48.358;10.746;2023-02-28T01:38:04;96655.50;;;-1.05;100.00
10014;BME280;45684;48.358;10.746;2023-02-28T01:40:46;96645.69;;;-1.05;100.00
10014;BME280;45684;48.358;10.746;2023-02-28T01:43:20;96651.56;;;-1.02;100.00
10014;BME280;45684;48.358;10.746;2023-02-28T01:45:49;96636.66;;;-1.04;100.00
10014;BME280;45684;48.358;10.746;2023-02-28T01:48:20;96638.31;;;-1.02;100.00
10014;BME280;45684;48.358;10.746;2023-02-28T01:50:49;96634.50;;;-1.07;100.00
10014;BME280;45684;48.358;10.746;2023-02-28T01:53:21;96637.72;;;-1.05;100.00
10014;BME280;45684;48.358;10.746;2023-02-28T01:55:53;96648.34;;;-1.05;100.00
10014;BME280;45684;48.358;10.746;2023-02-28T01:58:21;96653.19;;;-1.01;100.00
10014;BME280;45684;48.358;10.746;2023-02-28T02:00:49;96636.22;;;-1.00;100.00
10014;BME280;45684;48.358;10.746;2023-02-28T02:03:19;96628.25;;;-1.00;100.00
10014;BME280;45684;48.358;10.746;2023-02-28T02:05:47;96629.75;;;-1.05;100.00
10014;BME280;45684;48.358;10.746;2023-02-28T02:08:19;96639.91;;;-1.01;100.00
10014;BME280;45684;48.358;10.746;2023-02-28T02:10:49;96628.25;;;-1.00;100.00
10014;BME280;45684;48.358;10.746;2023-02-28T02:13:34;96632.66;;;-1.06;100.00
10014;BME280;45684;48.358;10.746;2023-02-28T02:16:13;96633.81;;;-1.02;100.00
10014;BME280;45684;48.358;10.746;2023-02-28T02:18:47;96624.22;;;-1.03;100.00
10014;BME280;45684;48.358;10.746;2023-02-28T02:21:40;96612.34;;;-1.00;100.00
10014;BME280;45684;48.358;10.746;2023-02-28T02:24:36;96625.38;;;-0.99;100.00
10014;BME280;45684;48.358;10.746;2023-02-28T02:27:22;96615.00;;;-1.00;100.00
10014;BME280;45684;48.358;10.746;2023-02-28T02:30:12;96612.22;;;-1.06;100.00
10014;BME280;45684;48.358;10.746;2023-02-28T02:33:17;96610.81;;;-1.08;100.00
10014;BME280;45684;48.358;10.746;2023-02-28T02:35:52;96606.31;;;-1.08;100.00
10014;BME280;45684;48.358;10.746;2023-02-28T02:38:31;96602.66;;;-1.07;100.00
10014;BME280;45684;48.358;10.746;2023-02-28T02:41:08;96606.81;;;-1.11;100.00
10014;BME280;45684;48.358;10.746;2023-02-28T02:43:41;96610.50;;;-1.12;100.00
10014;BME280;45684;48.358;10.746;2023-02-28T02:46:14;96614.88;;;-1.06;100.00
10014;BME280;45684;48.358;10.746;2023-02-28T02:48:46;96617.63;;;-1.12;100.00
10014;BME280;45684;48.358;10.746;2023-02-28T02:51:16;96618.91;;;-1.15;100.00
10014;BME280;45684;48.358;10.746;2023-02-28T02:53:49;96615.91;;;-1.07;100.00
10014;BME280;45684;48.358;10.746;2023-02-28T02:56:22;96621.78;;;-1.05;100.00
10014;BME280;45684;48.358;10.746;2023-02-28T02:58:55;96614.75;;;-1.11;100.00
10014;BME280;45684;48.358;10.746;2023-02-28T03:01:28;96617.97;;;-1.09;100.00
10014;BME280;45684;48.358;10.746;2023-02-28T03:04:01;96630.22;;;-1.08;100.00
10014;BME280;45684;48.358;10.746;2023-02-28T03:06:31;96616.72;;;-1.06;100.00
10014;BME280;45684;48.358;10.746;2023-02-28T03:09:00;96625.94;;;-1.09;100.00
10014;BME280;45684;48.358;10.746;2023-02-28T03:11:29;96627.00;;;-1.10;100.00
10014;BME280;45684;48.358;10.746;2023-02-28T03:14:30;96637.50;;;-1.15;100.00
10014;BME280;45684;48.358;10.746;2023-02-28T03:17:24;96628.03;;;-1.11;100.00
10014;BME280;45684;48.358;10.746;2023-02-28T03:20:03;96630.78;;;-1.17;100.00
10014;BME280;45684;48.358;10.746;2023-02-28T03:22:45;96628.25;;;-1.12;100.00
10014;BME280;45684;48.358;10.746;2023-02-28T03:25:21;96634.94;;;-1.21;100.00
10014;BME280;45684;48.358;10.746;2023-02-28T03:27:58;96637.59;;;-1.21;100.00
10014;BME280;45684;48.358;10.746;2023-02-28T03:30:35;96624.66;;;-1.18;100.00
10014;BME280;45684;48.358;10.746;2023-02-28T03:33:08;96630.47;;;-1.21;100.00
10014;BME280;45684;48.358;10.746;2023-02-28T03:35:42;96642.19;;;-1.17;100.00
10014;BME280;45684;48.358;10.746;2023-02-28T03:38:16;96629.78;;;-1.16;100.00
10014;BME280;45684;48.358;10.746;2023-02-28T03:40:48;96636.78;;;-1.22;100.00
10014;BME280;45684;48.358;10.746;2023-02-28T03:43:20;96639.44;;;-1.22;100.00
10014;BME280;45684;48.358;10.746;2023-02-28T03:45:50;96640.47;;;-1.23;100.00
10014;BME280;45684;48.358;10.746;2023-02-28T03:48:23;96638.28;;;-1.26;100.00
10014;BME280;45684;48.358;10.746;2023-02-28T03:50:55;96654.66;;;-1.29;100.00
10014;BME280;45684;48.358;10.746;2023-02-28T03:53:28;96651.31;;;-1.24;100.00
10014;BME280;45684;48.358;10.746;2023-02-28T03:55:59;96649.91;;;-1.27;100.00
10014;BME280;45684;48.358;10.746;2023-02-28T03:58:32;96650.53;;;-1.25;100.00
10014;BME280;45684;48.358;10.746;2023-02-28T04:01:05;96651.31;;;-1.24;100.00
10014;BME280;45684;48.358;10.746;2023-02-28T04:03:35;96645.91;;;-1.18;100.00
10014;BME280;45684;48.358;10.746;2023-02-28T04:06:04;96653.28;;;-1.20;100.00
10014;BME280;45684;48.358;10.746;2023-02-28T04:08:34;96645.53;;;-1.21;100.00
10014;BME280;45684;48.358;10.746;2023-02-28T04:11:05;96647.50;;;-1.17;100.00
10014;BME280;45684;48.358;10.746;2023-02-28T04:13:34;96648.78;;;-1.19;100.00
10014;BME280;45684;48.358;10.746;2023-02-28T04:16:06;96657.44;;;-1.24;100.00
10014;BME280;45684;48.358;10.746;2023-02-28T04:18:47;96662.50;;;-1.22;100.00
10014;BME280;45684;48.358;10.746;2023-02-28T04:21:14;96659.84;;;-1.22;100.00
10014;BME280;45684;48.358;10.746;2023-02-28T04:23:48;96665.97;;;-1.22;100.00
10014;BME280;45684;48.358;10.746;2023-02-28T04:26:15;96663.22;;;-1.15;100.00
10014;BME280;45684;48.358;10.746;2023-02-28T04:28:43;96656.16;;;-1.21;100.00
10014;BME280;45684;48.358;10.746;2023-02-28T04:31:11;96659.75;;;-1.16;100.00
10014;BME280;45684;48.358;10.746;2023-02-28T04:33:39;96653.84;;;-1.18;100.00
10014;BME280;45684;48.358;10.746;2023-02-28T04:36:08;96650.53;;;-1.25;100.00
10014;BME280;45684;48.358;10.746;2023-02-28T04:38:37;96653.06;;;-1.30;100.00
10014;BME280;45684;48.358;10.746;2023-02-28T04:41:07;96655.72;;;-1.30;100.00
10014;BME280;45684;48.358;10.746;2023-02-28T04:43:35;96649.25;;;-1.22;100.00
10014;BME280;45684;48.358;10.746;2023-02-28T04:46:04;96661.13;;;-1.25;100.00
10014;BME280;45684;48.358;10.746;2023-02-28T04:48:33;96666.44;;;-1.25;100.00
10014;BME280;45684;48.358;10.746;2023-02-28T04:51:02;96656.38;;;-1.35;100.00
10014;BME280;45684;48.358;10.746;2023-02-28T04:53:30;96660.22;;;-1.31;100.00
10014;BME280;45684;48.358;10.746;2023-02-28T04:55:58;96664.78;;;-1.26;100.00
10014;BME280;45684;48.358;10.746;2023-02-28T04:58:27;96661.69;;;-1.35;100.00
10014;BME280;45684;48.358;10.746;2023-02-28T05:01:01;96666.19;;;-1.23;100.00
10014;BME280;45684;48.358;10.746;2023-02-28T05:03:29;96659.72;;;-1.27;100.00
10014;BME280;45684;48.358;10.746;2023-02-28T05:05:57;96669.66;;;-1.23;100.00
10014;BME280;45684;48.358;10.746;2023-02-28T05:08:24;96669.66;;;-1.23;100.00
10014;BME280;45684;48.358;10.746;2023-02-28T05:10:52;96674.28;;;-1.30;100.00
10014;BME280;45684;48.358;10.746;2023-02-28T05:13:20;96676.69;;;-1.29;100.00
10014;BME280;45684;48.358;10.746;2023-02-28T05:15:49;96668.50;;;-1.27;100.00
10014;BME280;45684;48.358;10.746;2023-02-28T05:18:17;96669.78;;;-1.30;100.00
10014;BME280;45684;48.358;10.746;2023-02-28T05:20:46;96656.47;;;-1.41;100.00
10014;BME280;45684;48.358;10.746;2023-02-28T05:23:14;96662.94;;;-1.37;100.00
10014;BME280;45684;48.358;10.746;2023-02-28T05:25:44;96665.59;;;-1.37;100.00
10014;BME280;45684;48.358;10.746;2023-02-28T05:28:11;96668.25;;;-1.37;100.00
10014;BME280;45684;48.358;10.746;2023-02-28T05:30:39;96668.25;;;-1.37;100.00
10014;BME280;45684;48.358;10.746;2023-02-28T05:33:11;96668.50;;;-1.39;100.00
10014;BME280;45684;48.358;10.746;2023-02-28T05:35:39;96670.53;;;-1.41;100.00
10014;BME280;45684;48.358;10.746;2023-02-28T05:38:07;96662.38;;;-1.39;100.00
10014;BME280;45684;48.358;10.746;2023-02-28T05:40:38;96663.75;;;-1.37;100.00
10014;BME280;45684;48.358;10.746;2023-02-28T05:43:05;96662.50;;;-1.34;100.00
10014;BME280;45684;48.358;10.746;2023-02-28T05:45:36;96669.53;;;-1.28;100.00
10014;BME280;45684;48.358;10.746;2023-02-28T05:48:04;96668.84;;;-1.35;100.00
10014;BME280;45684;48.358;10.746;2023-02-28T05:50:33;96684.97;;;-1.37;100.00
10014;BME280;45684;48.358;10.746;2023-02-28T05:53:01;96679.09;;;-1.39;100.00
10014;BME280;45684;48.358;10.746;2023-02-28T05:55:28;96677.69;;;-1.41;100.00
10014;BME280;45684;48.358;10.746;2023-02-28T05:57:56;96680.81;;;-1.44;100.00
10014;BME280;45684;48.358;10.746;2023-02-28T06:00:25;96685.78;;;-1.36;100.00
10014;BME280;45684;48.358;10.746;2023-02-28T06:02:53;96683.81;;;-1.41;100.00
10014;BME280;45684;48.358;10.746;2023-02-28T06:05:22;96698.78;;;-1.46;100.00
10014;BME280;45684;48.358;10.746;2023-02-28T06:07:52;96683.81;;;-1.41;100.00
10014;BME280;45684;48.358;10.746;2023-02-28T06:10:19;96685.44;;;-1.40;100.00
10014;BME280;45684;48.358;10.746;2023-02-28T06:12:47;96688.91;;;-1.39;100.00
10014;BME280;45684;48.358;10.746;2023-02-28T06:15:15;96686.25;;;-1.39;100.00
10014;BME280;45684;48.358;10.746;2023-02-28T06:17:44;96691.31;;;-1.38;100.00
10014;BME280;45684;48.358;10.746;2023-02-28T06:20:12;96707.00;;;-1.36;100.00
10014;BME280;45684;48.358;10.746;2023-02-28T06:22:40;96707.72;;;-1.29;100.00
10014;BME280;45684;48.358;10.746;2023-02-28T06:25:10;96719.25;;;-1.35;100.00
10014;BME280;45684;48.358;10.746;2023-02-28T06:27:38;96723.72;;;-1.36;100.00
10014;BME280;45684;48.358;10.746;2023-02-28T06:30:07;96717.84;;;-1.38;100.00
10014;BME280;45684;48.358;10.746;2023-02-28T06:32:35;96729.69;;;-1.40;100.00
10014;BME280;45684;48.358;10.746;2023-02-28T06:35:03;96727.31;;;-1.30;100.00
10014;BME280;45684;48.358;10.746;2023-02-28T06:37:31;96733.06;;;-1.33;100.00
10014;BME280;45684;48.358;10.746;2023-02-28T06:39:59;96745.41;;;-1.27;100.00
10014;BME280;45684;48.358;10.746;2023-02-28T06:42:29;96731.72;;;-1.24;100.00
10014;BME280;45684;48.358;10.746;2023-02-28T06:44:57;96752.50;;;-1.21;100.00
10014;BME280;45684;48.358;10.746;2023-02-28T06:47:25;96745.47;;;-1.15;100.00
10014;BME280;45684;48.358;10.746;2023-02-28T06:49:53;96752.38;;;-1.14;100.00
10014;BME280;45684;48.358;10.746;2023-02-28T06:52:20;96747.19;;;-1.21;100.00
10014;BME280;45684;48.358;10.746;2023-02-28T06:54:48;96748.31;;;-1.29;100.00
10014;BME280;45684;48.358;10.746;2023-02-28T06:57:29;96753.97;;;-1.25;100.00
10014;BME280;45684;48.358;10.746;2023-02-28T06:59:58;96752.03;;;-1.18;100.00
10014;BME280;45684;48.358;10.746;2023-02-28T07:02:26;96745.16;;;-1.07;100.00
10014;BME280;45684;48.358;10.746;2023-02-28T07:04:54;96743.50;;;-1.08;100.00
10014;BME280;45684;48.358;10.746;2023-02-28T07:07:22;96755.53;;;-1.06;100.00
10014;BME280;45684;48.358;10.746;2023-02-28T07:09:50;96740.09;;;-0.97;100.00
10014;BME280;45684;48.358;10.746;2023-02-28T07:12:17;96738.69;;;-0.99;100.00
10014;BME280;45684;48.358;10.746;2023-02-28T07:14:47;96734.19;;;-0.99;100.00
10014;BME280;45684;48.358;10.746;2023-02-28T07:17:14;96737.44;;;-0.97;100.00
10014;BME280;45684;48.358;10.746;2023-02-28T07:19:42;96740.78;;;-0.90;100.00
10014;BME280;45684;48.358;10.746;2023-02-28T07:22:10;96747.69;;;-1.00;100.00
10014;BME280;45684;48.358;10.746;2023-02-28T07:24:41;96733.16;;;-0.86;100.00
10014;BME280;45684;48.358;10.746;2023-02-28T07:27:08;96736.38;;;-0.84;100.00
10014;BME280;45684;48.358;10.746;2023-02-28T07:29:36;96742.28;;;-0.82;100.00
10014;BME280;45684;48.358;10.746;2023-02-28T07:32:05;96741.38;;;-0.76;100.00
10014;BME280;45684;48.358;10.746;2023-02-28T07:34:33;96754.41;;;-0.86;100.00
10014;BME280;45684;48.358;10.746;2023-02-28T07:37:01;96752.47;;;-0.79;100.00
10014;BME280;45684;48.358;10.746;2023-02-28T07:39:30;96751.19;;;-0.88;100.00
10014;BME280;45684;48.358;10.746;2023-02-28T07:41:57;96757.19;;;-0.81;100.00
10014;BME280;45684;48.358;10.746;2023-02-28T07:44:26;96761.00;;;-0.77;100.00
10014;BME280;45684;48.358;10.746;2023-02-28T07:46:53;96749.22;;;-0.69;100.00
10014;BME280;45684;48.358;10.746;2023-02-28T07:49:23;96760.19;;;-0.66;100.00
10014;BME280;45684;48.358;10.746;2023-02-28T07:51:50;96764.59;;;-0.60;100.00
10014;BME280;45684;48.358;10.746;2023-02-28T07:54:18;96766.88;;;-0.52;100.00
10014;BME280;45684;48.358;10.746;2023-02-28T07:56:46;96769.09;;;-0.37;100.00
10014;BME280;45684;48.358;10.746;2023-02-28T07:59:13;96758.56;;;-0.43;100.00
10014;BME280;45684;48.358;10.746;2023-02-28T08:01:41;96765.84;;;-0.39;100.00
10014;BME280;45684;48.358;10.746;2023-02-28T08:04:11;96765.50;;;-0.42;100.00
10014;BME280;45684;48.358;10.746;2023-02-28T08:06:40;96767.59;;;-0.44;100.00
10014;BME280;45684;48.358;10.746;2023-02-28T08:09:08;96769.53;;;-0.28;100.00
10014;BME280;45684;48.358;10.746;2023-02-28T08:11:35;96763.41;;;-0.29;100.00
10014;BME280;45684;48.358;10.746;2023-02-28T08:14:03;96773.91;;;-0.10;100.00
10014;BME280;45684;48.358;10.746;2023-02-28T08:16:31;96780.28;;;0.01;100.00
10014;BME280;45684;48.358;10.746;2023-02-28T08:18:59;96773.66;;;0.03;100.00
10014;BME280;45684;48.358;10.746;2023-02-28T08:21:26;96777.47;;;0.19;100.00
10014;BME280;45684;48.358;10.746;2023-02-28T08:23:56;96770.75;;;0.28;100.00
10014;BME280;45684;48.358;10.746;2023-02-28T08:26:24;96780.00;;;0.14;100.00
10014;BME280;45684;48.358;10.746;2023-02-28T08:28:52;96778.72;;;0.16;100.00
10014;BME280;45684;48.358;10.746;2023-02-28T08:31:22;96778.59;;;0.23;100.00
10014;BME280;45684;48.358;10.746;2023-02-28T08:33:50;96786.56;;;0.23;100.00
10014;BME280;45684;48.358;10.746;2023-02-28T08:36:19;96783.81;;;0.18;100.00
10014;BME280;45684;48.358;10.746;2023-02-28T08:38:47;96783.34;;;0.33;100.00
10014;BME280;45684;48.358;10.746;2023-02-28T08:41:16;96791.94;;;0.52;100.00
10014;BME280;45684;48.358;10.746;2023-02-28T08:43:44;96795.06;;;0.48;99.58
10014;BME280;45684;48.358;10.746;2023-02-28T08:46:12;96794.59;;;0.52;99.39
10014;BME280;45684;48.358;10.746;2023-02-28T08:48:41;96783.38;;;0.49;99.41
10014;BME280;45684;48.358;10.746;2023-02-28T08:51:12;96786.91;;;0.38;100.00
10014;BME280;45684;48.358;10.746;2023-02-28T08:53:40;96789.78;;;0.37;100.00
10014;BME280;45684;48.358;10.746;2023-02-28T08:56:09;96790.66;;;0.54;100.00
10014;BME280;45684;48.358;10.746;2023-02-28T08:58:39;96788.28;;;0.69;100.00
10014;BME280;45684;48.358;10.746;2023-02-28T09:01:08;96793.19;;;0.89;99.19
10014;BME280;45684;48.358;10.746;2023-02-28T09:03:36;96784.16;;;0.90;99.98
10014;BME280;45684;48.358;10.746;2023-02-28T09:06:04;96787.06;;;1.06;96.80
10014;BME280;45684;48.358;10.746;2023-02-28T09:08:32;96792.50;;;0.82;97.86
10014;BME280;45684;48.358;10.746;2023-02-28T09:11:00;96796.22;;;0.81;99.40
10014;BME280;45684;48.358;10.746;2023-02-28T09:13:30;96790.75;;;0.88;97.60
10014;BME280;45684;48.358;10.746;2023-02-28T09:16:02;96794.59;;;1.09;98.40
10014;BME280;45684;48.358;10.746;2023-02-28T09:18:30;96795.72;;;1.13;96.72
10014;BME280;45684;48.358;10.746;2023-02-28T09:20:58;96801.31;;;1.28;95.75
10014;BME280;45684;48.358;10.746;2023-02-28T09:23:25;96801.31;;;1.45;94.84
10014;BME280;45684;48.358;10.746;2023-02-28T09:25:54;96806.09;;;1.60;93.44
10014;BME280;45684;48.358;10.746;2023-02-28T09:28:22;96820.19;;;1.77;90.82
10014;BME280;45684;48.358;10.746;2023-02-28T09:30:52;96821.56;;;1.79;90.55
10014;BME280;45684;48.358;10.746;2023-02-28T09:33:21;96826.75;;;1.69;90.65
10014;BME280;45684;48.358;10.746;2023-02-28T09:35:50;96826.00;;;1.57;88.52
10014;BME280;45684;48.358;10.746;2023-02-28T09:38:18;96826.41;;;1.32;91.77
10014;BME280;45684;48.358;10.746;2023-02-28T09:40:49;96832.59;;;1.21;93.67
10014;BME280;45684;48.358;10.746;2023-02-28T09:43:20;96831.97;;;1.14;94.29
10014;BME280;45684;48.358;10.746;2023-02-28T09:45:53;96836.16;;;1.10;93.01
10014;BME280;45684;48.358;10.746;2023-02-28T09:48:28;96841.66;;;0.91;93.84
10014;BME280;45684;48.358;10.746;2023-02-28T09:51:00;96834.66;;;1.02;94.75
10014;BME280;45684;48.358;10.746;2023-02-28T09:53:32;96833.78;;;0.96;97.01
10014;BME280;45684;48.358;10.746;2023-02-28T09:56:03;96832.06;;;0.90;96.97
10014;BME280;45684;48.358;10.746;2023-02-28T09:58:36;96838.81;;;0.81;97.73
10014;BME280;45684;48.358;10.746;2023-02-28T10:01:12;96846.56;;;0.83;98.15
10014;BME280;45684;48.358;10.746;2023-02-28T10:03:55;96837.47;;;0.67;97.16
10014;BME280;45684;48.358;10.746;2023-02-28T10:06:28;96848.06;;;0.79;97.44
10014;BME280;45684;48.358;10.746;2023-02-28T10:09:01;96839.69;;;0.98;96.80
10014;BME280;45684;48.358;10.746;2023-02-28T10:11:32;96844.31;;;1.20;96.38
10014;BME280;45684;48.358;10.746;2023-02-28T10:14:04;96847.16;;;1.30;95.94
10014;BME280;45684;48.358;10.746;2023-02-28T10:16:37;96847.00;;;1.37;94.81
10014;BME280;45684;48.358;10.746;2023-02-28T10:19:13;96848.44;;;1.27;95.48
10014;BME280;45684;48.358;10.746;2023-02-28T10:21:44;96843.47;;;1.48;94.18
10014;BME280;45684;48.358;10.746;2023-02-28T10:24:20;96845.09;;;1.66;93.98
10014;BME280;45684;48.358;10.746;2023-02-28T10:26:52;96842.97;;;2.01;94.16
10014;BME280;45684;48.358;10.746;2023-02-28T10:29:24;96834.19;;;2.23;91.62
10014;BME280;45684;48.358;10.746;2023-02-28T10:31:52;96842.91;;;2.57;89.87
10014;BME280;45684;48.358;10.746;2023-02-28T10:34:21;96838.63;;;2.78;87.34
10014;BME280;45684;48.358;10.746;2023-02-28T10:36:50;96842.53;;;2.92;86.05
10014;BME280;45684;48.358;10.746;2023-02-28T10:39:38;96833.63;;;3.09;85.16
10014;BME280;45684;48.358;10.746;2023-02-28T10:42:22;96837.81;;;3.26;87.46
10014;BME280;45684;48.358;10.746;2023-02-28T10:45:06;96838.41;;;3.33;83.16
10014;BME280;45684;48.358;10.746;2023-02-28T10:47:34;96836.22;;;3.30;80.84
10014;BME280;45684;48.358;10.746;2023-02-28T10:50:26;96834.44;;;3.36;84.58
10014;BME280;45684;48.358;10.746;2023-02-28T10:52:55;96835.19;;;3.31;83.14
10014;BME280;45684;48.358;10.746;2023-02-28T10:55:32;96833.66;;;3.41;80.72
10014;BME280;45684;48.358;10.746;2023-02-28T10:58:00;96830.81;;;3.52;80.14
10014;BME280;45684;48.358;10.746;2023-02-28T11:00:33;96828.22;;;3.63;76.59
10014;BME280;45684;48.358;10.746;2023-02-28T11:03:23;96825.63;;;3.73;74.86
10014;BME280;45684;48.358;10.746;2023-02-28T11:05:52;96831.81;;;3.73;77.67
10014;BME280;45684;48.358;10.746;2023-02-28T11:08:20;96835.25;;;3.69;78.85
10014;BME280;45684;48.358;10.746;2023-02-28T11:10:54;96840.88;;;3.72;77.70
10014;BME280;45684;48.358;10.746;2023-02-28T11:13:26;96834.72;;;3.72;79.07
10014;BME280;45684;48.358;10.746;2023-02-28T11:15:56;96829.28;;;3.62;78.59
10014;BME280;45684;48.358;10.746;2023-02-28T11:18:28;96842.41;;;3.63;82.94
10014;BME280;45684;48.358;10.746;2023-02-28T11:20:59;96838.38;;;3.61;83.38
10014;BME280;45684;48.358;10.746;2023-02-28T11:23:30;96828.78;;;3.65;78.39
10014;BME280;45684;48.358;10.746;2023-02-28T11:26:04;96827.78;;;3.76;79.46
10014;BME280;45684;48.358;10.746;2023-02-28T11:28:37;96847.63;;;3.80;77.83
10014;BME280;45684;48.358;10.746;2023-02-28T11:31:15;96839.06;;;3.78;78.55
10014;BME280;45684;48.358;10.746;2023-02-28T11:33:47;96829.44;;;3.82;77.76
10014;BME280;45684;48.358;10.746;2023-02-28T11:36:20;96838.22;;;3.77;79.49
10014;BME280;45684;48.358;10.746;2023-02-28T11:38:51;96829.16;;;3.78;77.60
10014;BME280;45684;48.358;10.746;2023-02-28T11:41:39;96825.50;;;3.90;77.21
10014;BME280;45684;48.358;10.746;2023-02-28T11:44:23;96829.00;;;3.95;75.57
10014;BME280;45684;48.358;10.746;2023-02-28T11:46:58;96832.78;;;3.99;78.38
10014;BME280;45684;48.358;10.746;2023-02-28T11:49:37;96819.03;;;4.28;77.17
10014;BME280;45684;48.358;10.746;2023-02-28T11:52:17;96811.94;;;4.54;74.49
10014;BME280;45684;48.358;10.746;2023-02-28T11:54:57;96816.19;;;4.45;74.54
10014;BME280;45684;48.358;10.746;2023-02-28T11:57:35;96816.47;;;4.48;75.18
10014;BME280;45684;48.358;10.746;2023-02-28T12:00:12;96812.44;;;4.46;72.66
10014;BME280;45684;48.358;10.746;2023-02-28T12:02:57;96819.81;;;4.76;70.74
10014;BME280;45684;48.358;10.746;2023-02-28T12:05:32;96807.53;;;4.90;76.56
10014;BME280;45684;48.358;10.746;2023-02-28T12:08:11;96808.09;;;5.12;71.49
10014;BME280;45684;48.358;10.746;2023-02-28T12:10:54;96816.19;;;5.48;69.10
10014;BME280;45684;48.358;10.746;2023-02-28T12:13:28;96803.31;;;5.96;66.47
10014;BME280;45684;48.358;10.746;2023-02-28T12:16:15;96807.88;;;5.80;62.66
10014;BME280;45684;48.358;10.746;2023-02-28T12:18:56;96816.19;;;5.89;58.97
10014;BME280;45684;48.358;10.746;2023-02-28T12:21:37;96813.25;;;5.96;58.08
10014;BME280;45684;48.358;10.746;2023-02-28T12:24:22;96809.25;;;5.93;62.20
10014;BME280;45684;48.358;10.746;2023-02-28T12:26:56;96807.06;;;6.05;62.35
10014;BME280;45684;48.358;10.746;2023-02-28T12:29:28;96806.56;;;6.03;60.85
10014;BME280;45684;48.358;10.746;2023-02-28T12:31:59;96797.94;;;6.11;60.44
10014;BME280;45684;48.358;10.746;2023-02-28T12:34:33;96789.59;;;6.23;61.14
10014;BME280;45684;48.358;10.746;2023-02-28T12:37:06;96797.69;;;6.08;62.29
10014;BME280;45684;48.358;10.746;2023-02-28T12:39:41;96786.63;;;6.30;59.15
10014;BME280;45684;48.358;10.746;2023-02-28T12:42:21;96787.97;;;6.27;57.67
10014;BME280;45684;48.358;10.746;2023-02-28T12:44:54;96784.94;;;6.54;58.74
10014;BME280;45684;48.358;10.746;2023-02-28T12:47:24;96794.28;;;6.62;59.27
10014;BME280;45684;48.358;10.746;2023-02-28T12:49:54;96787.25;;;6.76;57.25
10014;BME280;45684;48.358;10.746;2023-02-28T12:52:31;96784.03;;;6.74;58.84
10014;BME280;45684;48.358;10.746;2023-02-28T12:55:12;96785.94;;;6.69;58.90
10014;BME280;45684;48.358;10.746;2023-02-28T12:57:46;96780.84;;;6.67;57.14
10014;BME280;45684;48.358;10.746;2023-02-28T13:00:21;96776.72;;;6.85;57.60
10014;BME280;45684;48.358;10.746;2023-02-28T13:03:10;96771.34;;;6.85;58.09
10014;BME280;45684;48.358;10.746;2023-02-28T13:06:05;96770.00;;;6.87;54.46
10014;BME280;45684;48.358;10.746;2023-02-28T13:08:59;96771.41;;;6.70;57.18
10014;BME280;45684;48.358;10.746;2023-02-28T13:11:31;96767.47;;;7.06;56.05